createdAt,value
2022-12-31T00:01:11.028Z,0.95
2022-12-31T00:03:38.442Z,1.10
2022-12-31T00:06:15.197Z,1.65
2022-12-31T00:08:42.160Z,1.10
2022-12-31T00:11:08.921Z,1.40
2022-12-31T00:13:36.171Z,1.50
2022-12-31T00:16:22.878Z,1.50
2022-12-31T00:18:51.177Z,1.38
2022-12-31T00:21:18.523Z,1.27
2022-12-31T00:23:45.604Z,1.30
2022-12-31T00:26:13.466Z,1.00
2022-12-31T00:28:40.714Z,1.77
2022-12-31T00:31:09.374Z,1.25
2022-12-31T00:33:36.471Z,1.42
2022-12-31T00:36:07.126Z,1.50
2022-12-31T00:38:34.870Z,1.20
2022-12-31T00:41:01.851Z,1.52
2022-12-31T00:43:28.624Z,1.08
2022-12-31T00:45:55.487Z,1.63
2022-12-31T00:48:22.344Z,1.67
2022-12-31T00:50:49.185Z,1.50
2022-12-31T00:53:16.028Z,1.25
2022-12-31T00:55:42.857Z,1.50
2022-12-31T00:58:09.732Z,1.10
2022-12-31T01:00:37.201Z,1.20
2022-12-31T01:03:04.861Z,1.30
2022-12-31T01:05:32.619Z,1.02
2022-12-31T01:07:59.438Z,1.10
2022-12-31T01:10:45.143Z,0.90
2022-12-31T01:13:11.934Z,1.00
2022-12-31T01:15:39.294Z,1.25
2022-12-31T01:18:07.351Z,0.82
2022-12-31T01:20:41.597Z,0.90
2022-12-31T01:23:08.988Z,0.88
2022-12-31T01:25:36.749Z,0.95
2022-12-31T01:28:04.274Z,1.00
2022-12-31T01:30:31.182Z,0.82
2022-12-31T01:32:58.046Z,0.77
2022-12-31T01:35:24.991Z,0.88
2022-12-31T01:37:51.840Z,0.70
2022-12-31T01:40:18.644Z,0.80
2022-12-31T01:42:45.479Z,0.60
2022-12-31T01:45:13.525Z,1.00
2022-12-31T01:47:44.150Z,0.85
2022-12-31T01:50:19.623Z,1.00
2022-12-31T01:52:48.129Z,0.60
2022-12-31T01:55:17.942Z,0.85
2022-12-31T01:57:46.517Z,0.70
2022-12-31T02:00:14.346Z,0.80
2022-12-31T02:02:41.380Z,0.73
2022-12-31T02:05:18.959Z,0.55
2022-12-31T02:07:47.480Z,0.70
2022-12-31T02:10:14.299Z,0.95
2022-12-31T02:12:41.155Z,0.80
2022-12-31T02:15:08.197Z,0.82
2022-12-31T02:17:37.845Z,0.70
2022-12-31T02:20:04.680Z,0.85
2022-12-31T02:22:31.424Z,0.80
2022-12-31T02:25:06.124Z,0.60
2022-12-31T02:27:35.659Z,0.82
2022-12-31T02:30:06.128Z,0.93
2022-12-31T02:32:35.642Z,0.70
2022-12-31T02:35:11.041Z,0.90
2022-12-31T02:37:39.292Z,1.00
2022-12-31T02:40:10.097Z,0.50
2022-12-31T02:42:36.884Z,0.50
2022-12-31T02:45:03.747Z,0.65
2022-12-31T02:47:30.519Z,1.00
2022-12-31T02:50:10.201Z,0.90
2022-12-31T02:52:36.960Z,0.50
2022-12-31T02:55:22.362Z,0.63
2022-12-31T02:58:03.298Z,0.60
2022-12-31T03:00:50.902Z,0.95
2022-12-31T03:03:19.158Z,0.70
2022-12-31T03:05:46.855Z,0.65
2022-12-31T03:08:20.449Z,0.60
2022-12-31T03:10:47.227Z,0.73
2022-12-31T03:13:14.002Z,0.80
2022-12-31T03:15:40.828Z,0.82
2022-12-31T03:18:09.229Z,0.50
2022-12-31T03:20:56.581Z,0.60
2022-12-31T03:23:25.784Z,0.40
2022-12-31T03:25:53.482Z,0.73
2022-12-31T03:28:21.579Z,0.63
2022-12-31T03:30:50.730Z,0.68
2022-12-31T03:33:17.929Z,0.60
2022-12-31T03:35:45.862Z,0.63
2022-12-31T03:38:12.711Z,0.65
2022-12-31T03:40:40.836Z,0.60
2022-12-31T03:43:07.713Z,0.40
2022-12-31T03:45:34.740Z,0.40
2022-12-31T03:48:02.115Z,0.50
2022-12-31T03:50:29.261Z,0.40
2022-12-31T03:52:56.108Z,0.28
2022-12-31T03:55:22.918Z,0.28
2022-12-31T03:57:50.187Z,0.30
2022-12-31T04:00:18.840Z,0.20
2022-12-31T04:02:48.876Z,0.30
2022-12-31T04:05:16.713Z,0.10
2022-12-31T04:07:43.701Z,0.20
2022-12-31T04:10:11.654Z,0.20
2022-12-31T04:12:38.595Z,0.20
2022-12-31T04:15:06.138Z,0.10
2022-12-31T04:17:32.973Z,0.20
2022-12-31T04:19:59.764Z,0.20
2022-12-31T04:22:26.614Z,0.20
2022-12-31T04:24:53.378Z,0.32
2022-12-31T04:27:20.178Z,0.30
2022-12-31T04:29:46.991Z,0.55
2022-12-31T04:32:13.810Z,0.57
2022-12-31T04:34:40.589Z,0.60
2022-12-31T04:37:07.439Z,1.02
2022-12-31T04:39:34.916Z,1.00
2022-12-31T04:42:01.727Z,1.40
2022-12-31T04:44:28.562Z,0.90
2022-12-31T04:46:55.430Z,1.48
2022-12-31T04:49:22.315Z,1.40
2022-12-31T04:51:49.067Z,1.48
2022-12-31T04:54:15.835Z,1.10
2022-12-31T04:56:42.746Z,1.42
2022-12-31T04:59:10.395Z,1.35
2022-12-31T05:01:38.650Z,1.73
2022-12-31T05:04:05.659Z,1.40
2022-12-31T05:06:32.461Z,1.20
2022-12-31T05:08:59.449Z,1.40
2022-12-31T05:11:26.436Z,2.28
2022-12-31T05:13:53.265Z,1.40
2022-12-31T05:16:20.182Z,1.42
2022-12-31T05:18:47.014Z,1.25
2022-12-31T05:21:19.004Z,1.40
2022-12-31T05:23:45.747Z,1.90
2022-12-31T05:26:12.543Z,1.40
2022-12-31T05:28:39.359Z,1.88
2022-12-31T05:31:06.321Z,1.65
2022-12-31T05:33:33.194Z,1.50
2022-12-31T05:36:00.026Z,2.00
2022-12-31T05:38:26.821Z,1.30
2022-12-31T05:41:06.648Z,2.00
2022-12-31T05:43:33.821Z,1.48
2022-12-31T05:46:02.138Z,1.95
2022-12-31T05:48:29.129Z,1.45
2022-12-31T05:50:56.039Z,1.38
2022-12-31T05:53:22.937Z,1.90
2022-12-31T05:55:50.247Z,1.38
2022-12-31T05:58:17.032Z,1.70
2022-12-31T06:00:43.855Z,1.70
2022-12-31T06:03:11.483Z,1.35
2022-12-31T06:05:42.276Z,2.05
2022-12-31T06:08:09.936Z,1.85
2022-12-31T06:10:36.762Z,1.50
2022-12-31T06:13:03.953Z,1.88
2022-12-31T06:15:30.772Z,2.15
2022-12-31T06:17:57.795Z,1.90
2022-12-31T06:20:24.561Z,1.70
2022-12-31T06:22:51.376Z,1.55
2022-12-31T06:25:18.195Z,1.80
2022-12-31T06:27:45.019Z,1.83
2022-12-31T06:30:12.098Z,1.63
2022-12-31T06:32:40.744Z,1.60
2022-12-31T06:35:08.119Z,2.80
2022-12-31T06:37:34.952Z,2.42
2022-12-31T06:40:01.812Z,1.90
2022-12-31T06:42:30.811Z,1.95
2022-12-31T06:45:00.490Z,1.50
2022-12-31T06:47:27.304Z,1.20
2022-12-31T06:49:54.186Z,1.45
2022-12-31T06:52:21.180Z,1.52
2022-12-31T06:54:48.401Z,1.40
2022-12-31T06:57:15.400Z,1.30
2022-12-31T06:59:42.384Z,1.33
2022-12-31T07:02:17.528Z,1.20
2022-12-31T07:05:04.615Z,1.63
2022-12-31T07:07:34.703Z,1.30
2022-12-31T07:10:30.544Z,1.08
2022-12-31T07:12:57.314Z,1.08
2022-12-31T07:15:42.790Z,1.13
2022-12-31T07:18:15.474Z,1.85
2022-12-31T07:20:42.354Z,1.45
2022-12-31T07:23:09.277Z,2.03
2022-12-31T07:25:38.263Z,0.90
2022-12-31T07:28:20.217Z,1.88
2022-12-31T07:31:02.154Z,1.80
2022-12-31T07:33:40.694Z,1.35
2022-12-31T07:36:19.489Z,0.93
2022-12-31T07:38:58.437Z,0.73
2022-12-31T07:41:43.482Z,1.30
2022-12-31T07:44:19.514Z,1.52
2022-12-31T07:47:01.922Z,1.40
2022-12-31T07:49:30.004Z,1.25
2022-12-31T07:51:57.025Z,1.20
2022-12-31T07:54:23.880Z,1.73
2022-12-31T07:56:51.234Z,1.80
2022-12-31T07:59:36.719Z,1.33
2022-12-31T08:02:15.522Z,1.17
2022-12-31T08:04:45.334Z,1.30
2022-12-31T08:07:24.167Z,1.58
2022-12-31T08:09:51.201Z,1.70
2022-12-31T08:12:18.576Z,1.90
2022-12-31T08:14:46.776Z,1.77
2022-12-31T08:17:17.567Z,1.50
2022-12-31T08:19:45.919Z,1.60
2022-12-31T08:22:30.746Z,1.67
2022-12-31T08:25:12.579Z,1.63
2022-12-31T08:27:40.492Z,2.00
2022-12-31T08:30:12.486Z,1.40
2022-12-31T08:32:54.244Z,1.83
2022-12-31T08:35:39.585Z,1.80
2022-12-31T08:38:09.115Z,1.80
2022-12-31T08:40:53.959Z,1.80
2022-12-31T08:43:26.679Z,2.03
2022-12-31T08:45:53.588Z,2.00
2022-12-31T08:48:29.687Z,1.88
2022-12-31T08:50:57.185Z,1.38
2022-12-31T08:53:24.183Z,1.50
2022-12-31T08:55:56.148Z,1.58
2022-12-31T08:58:34.425Z,1.50
2022-12-31T09:01:01.753Z,2.30
2022-12-31T09:04:07.277Z,1.67
2022-12-31T09:06:36.172Z,1.42
2022-12-31T09:09:21.161Z,2.45
2022-12-31T09:12:06.242Z,2.00
2022-12-31T09:14:41.829Z,2.63
2022-12-31T09:17:08.628Z,1.67
2022-12-31T09:19:35.488Z,1.63
2022-12-31T09:22:02.479Z,1.52
2022-12-31T09:24:29.440Z,1.48
2022-12-31T09:27:25.600Z,1.65
2022-12-31T09:29:59.781Z,1.73
2022-12-31T09:32:41.627Z,1.98
2022-12-31T09:35:22.176Z,1.70
2022-12-31T09:37:56.264Z,1.65
2022-12-31T09:40:28.915Z,1.70
2022-12-31T09:43:04.664Z,1.75
2022-12-31T09:45:31.591Z,1.83
2022-12-31T09:47:58.418Z,1.70
2022-12-31T09:50:25.172Z,1.58
2022-12-31T09:53:04.094Z,1.70
2022-12-31T09:55:38.052Z,1.40
2022-12-31T09:58:14.866Z,2.00
2022-12-31T10:00:50.443Z,2.00
2022-12-31T10:03:35.897Z,1.77
2022-12-31T10:06:08.569Z,2.13
2022-12-31T10:08:53.954Z,1.50
2022-12-31T10:11:53.055Z,1.38
2022-12-31T10:14:22.900Z,1.40
2022-12-31T10:17:11.038Z,1.25
2022-12-31T10:19:56.483Z,1.20
2022-12-31T10:22:42.129Z,1.33
2022-12-31T10:25:38.395Z,1.65
2022-12-31T10:28:06.959Z,1.25
2022-12-31T10:30:35.601Z,2.00
2022-12-31T10:33:08.391Z,0.80
2022-12-31T10:35:41.048Z,0.95
2022-12-31T10:38:25.957Z,0.68
2022-12-31T10:41:11.407Z,0.80
2022-12-31T10:43:38.160Z,1.10
2022-12-31T10:46:04.952Z,1.00
2022-12-31T10:48:43.730Z,0.70
2022-12-31T10:51:15.403Z,1.10
2022-12-31T10:54:11.351Z,0.60
2022-12-31T10:56:47.017Z,0.65
2022-12-31T10:59:16.586Z,0.80
2022-12-31T11:01:49.892Z,0.70
2022-12-31T11:04:27.838Z,1.05
2022-12-31T11:07:13.369Z,0.70
2022-12-31T11:09:55.297Z,0.40
2022-12-31T11:12:40.774Z,0.50
2022-12-31T11:15:08.067Z,0.40
2022-12-31T14:40:28.752Z,3.70
2022-12-31T19:01:48.192Z,3.50
2022-12-31T20:59:59.796Z,1.40
2022-12-31T21:20:14.584Z,1.55
2022-12-31T21:28:36.852Z,1.00
